sensor_id;sensor_type;location;lat;lon;timestamp;pressure;altitude;pressure_sealevel;temperature;humidity
40013;BME280;37387;42.672;23.334;2022-12-29T00:01:34;953.3;;;4.7;100.0
40013;BME280;37387;42.672;23.334;2022-12-29T00:02:34;953.3;;;4.6;100.0
40013;BME280;37387;42.672;23.334;2022-12-29T00:03:34;953.3;;;4.5;100.0
40013;BME280;37387;42.672;23.334;2022-12-29T00:04:34;953.3;;;4.4;100.0
40013;BME280;37387;42.672;23.334;2022-12-29T00:07:34;953.3;;;4.3;100.0
40013;BME280;37387;42.672;23.334;2022-12-29T00:11:34;953.3;;;4.4;100.0
40013;BME280;37387;42.672;23.334;2022-12-29T00:16:34;953.4;;;4.5;100.0
40013;BME280;37387;42.672;23.334;2022-12-29T00:17:34;953.3;;;4.6;100.0
40013;BME280;37387;42.672;23.334;2022-12-29T00:18:34;953.3;;;4.7;100.0
40013;BME280;37387;42.672;23.334;2022-12-29T00:19:34;953.4;;;4.6;100.0
40013;BME280;37387;42.672;23.334;2022-12-29T00:20:34;953.4;;;4.7;100.0
40013;BME280;37387;42.672;23.334;2022-12-29T00:21:34;953.4;;;4.6;100.0
40013;BME280;37387;42.672;23.334;2022-12-29T00:22:34;953.4;;;4.5;100.0
40013;BME280;37387;42.672;23.334;2022-12-29T00:23:36;953.4;;;4.6;100.0
40013;BME280;37387;42.672;23.334;2022-12-29T00:24:34;953.4;;;4.7;100.0
40013;BME280;37387;42.672;23.334;2022-12-29T00:28:34;953.3;;;4.8;100.0
40013;BME280;37387;42.672;23.334;2022-12-29T00:35:38;953.5;;;4.7;100.0
40013;BME280;37387;42.672;23.334;2022-12-29T00:36:34;953.5;;;4.8;100.0
40013;BME280;37387;42.672;23.334;2022-12-29T00:38:35;953.5;;;4.9;100.0
40013;BME280;37387;42.672;23.334;2022-12-29T00:43:34;953.5;;;5.0;100.0
40013;BME280;37387;42.672;23.334;2022-12-29T00:46:34;953.5;;;5.1;100.0
40013;BME280;37387;42.672;23.334;2022-12-29T00:47:34;953.5;;;5.0;100.0
40013;BME280;37387;42.672;23.334;2022-12-29T00:52:34;953.6;;;5.1;100.0
40013;BME280;37387;42.672;23.334;2022-12-29T01:01:34;953.5;;;5.2;100.0
40013;BME280;37387;42.672;23.334;2022-12-29T01:05:35;953.6;;;5.1;100.0
40013;BME280;37387;42.672;23.334;2022-12-29T01:10:34;953.6;;;5.2;100.0
40013;BME280;37387;42.672;23.334;2022-12-29T01:12:34;953.5;;;5.1;100.0
40013;BME280;37387;42.672;23.334;2022-12-29T01:21:34;953.5;;;5.2;100.0
40013;BME280;37387;42.672;23.334;2022-12-29T01:22:34;953.5;;;5.1;100.0
40013;BME280;37387;42.672;23.334;2022-12-29T01:26:34;953.5;;;5.2;100.0
40013;BME280;37387;42.672;23.334;2022-12-29T01:27:34;953.5;;;5.1;100.0
40013;BME280;37387;42.672;23.334;2022-12-29T01:28:34;953.4;;;5.0;100.0
40013;BME280;37387;42.672;23.334;2022-12-29T01:29:34;953.4;;;5.1;100.0
40013;BME280;37387;42.672;23.334;2022-12-29T01:31:34;953.4;;;5.0;100.0
40013;BME280;37387;42.672;23.334;2022-12-29T01:35:34;953.4;;;4.9;100.0
40013;BME280;37387;42.672;23.334;2022-12-29T01:37:34;953.3;;;4.8;100.0
40013;BME280;37387;42.672;23.334;2022-12-29T01:39:34;953.3;;;4.7;100.0
40013;BME280;37387;42.672;23.334;2022-12-29T01:40:42;953.3;;;4.6;100.0
40013;BME280;37387;42.672;23.334;2022-12-29T01:42:34;953.3;;;4.5;100.0
40013;BME280;37387;42.672;23.334;2022-12-29T01:45:34;953.3;;;4.4;100.0
40013;BME280;37387;42.672;23.334;2022-12-29T01:48:34;953.2;;;4.3;100.0
40013;BME280;37387;42.672;23.334;2022-12-29T02:00:34;953.1;;;4.4;100.0
40013;BME280;37387;42.672;23.334;2022-12-29T02:06:35;953.1;;;4.5;100.0
40013;BME280;37387;42.672;23.334;2022-12-29T02:07:34;953.1;;;4.6;100.0
40013;BME280;37387;42.672;23.334;2022-12-29T02:11:34;953.1;;;4.5;100.0
40013;BME280;37387;42.672;23.334;2022-12-29T02:13:34;953.1;;;4.6;100.0
40013;BME280;37387;42.672;23.334;2022-12-29T02:14:34;953.0;;;4.5;100.0
40013;BME280;37387;42.672;23.334;2022-12-29T02:15:36;953.0;;;4.6;100.0
40013;BME280;37387;42.672;23.334;2022-12-29T02:16:38;953.0;;;4.5;100.0
40013;BME280;37387;42.672;23.334;2022-12-29T02:18:36;953.1;;;4.4;100.0
40013;BME280;37387;42.672;23.334;2022-12-29T02:27:39;953.0;;;4.2;100.0
40013;BME280;37387;42.672;23.334;2022-12-29T02:31:35;952.9;;;4.1;100.0
40013;BME280;37387;42.672;23.334;2022-12-29T02:32:35;953.0;;;3.9;100.0
40013;BME280;37387;42.672;23.334;2022-12-29T02:33:37;953.0;;;4.0;100.0
40013;BME280;37387;42.672;23.334;2022-12-29T02:37:35;953.0;;;4.1;100.0
40013;BME280;37387;42.672;23.334;2022-12-29T02:39:35;953.0;;;4.2;100.0
40013;BME280;37387;42.672;23.334;2022-12-29T02:41:37;953.1;;;4.3;100.0
40013;BME280;37387;42.672;23.334;2022-12-29T02:42:35;953.1;;;4.4;100.0
40013;BME280;37387;42.672;23.334;2022-12-29T02:43:35;953.0;;;4.5;100.0
40013;BME280;37387;42.672;23.334;2022-12-29T02:45:36;953.0;;;4.6;100.0
40013;BME280;37387;42.672;23.334;2022-12-29T02:46:34;953.0;;;4.7;100.0
40013;BME280;37387;42.672;23.334;2022-12-29T02:47:35;953.1;;;4.6;100.0
40013;BME280;37387;42.672;23.334;2022-12-29T02:48:37;953.0;;;4.4;100.0
40013;BME280;37387;42.672;23.334;2022-12-29T02:50:34;953.0;;;4.5;100.0
40013;BME280;37387;42.672;23.334;2022-12-29T02:51:35;953.0;;;4.3;100.0
40013;BME280;37387;42.672;23.334;2022-12-29T02:53:34;953.0;;;4.4;100.0
40013;BME280;37387;42.672;23.334;2022-12-29T02:54:35;953.0;;;4.5;100.0
40013;BME280;37387;42.672;23.334;2022-12-29T02:55:34;953.0;;;4.3;100.0
40013;BME280;37387;42.672;23.334;2022-12-29T02:57:34;953.0;;;4.4;100.0
40013;BME280;37387;42.672;23.334;2022-12-29T02:58:34;953.0;;;4.5;100.0
40013;BME280;37387;42.672;23.334;2022-12-29T02:59:34;953.0;;;4.6;100.0
40013;BME280;37387;42.672;23.334;2022-12-29T03:00:34;953.0;;;4.5;100.0
40013;BME280;37387;42.672;23.334;2022-12-29T03:01:37;953.0;;;4.3;100.0
40013;BME280;37387;42.672;23.334;2022-12-29T03:02:39;952.9;;;4.4;100.0
40013;BME280;37387;42.672;23.334;2022-12-29T03:04:35;952.9;;;4.3;100.0
40013;BME280;37387;42.672;23.334;2022-12-29T03:06:35;952.9;;;4.4;100.0
40013;BME280;37387;42.672;23.334;2022-12-29T03:07:36;952.9;;;4.3;100.0
40013;BME280;37387;42.672;23.334;2022-12-29T03:09:36;952.9;;;4.2;100.0
40013;BME280;37387;42.672;23.334;2022-12-29T03:10:37;952.9;;;4.3;100.0
40013;BME280;37387;42.672;23.334;2022-12-29T03:14:36;952.9;;;4.4;100.0
40013;BME280;37387;42.672;23.334;2022-12-29T03:15:34;952.9;;;4.3;100.0
40013;BME280;37387;42.672;23.334;2022-12-29T03:19:35;952.8;;;4.2;100.0
40013;BME280;37387;42.672;23.334;2022-12-29T03:20:38;952.9;;;4.1;100.0
40013;BME280;37387;42.672;23.334;2022-12-29T03:22:35;952.8;;;4.2;100.0
40013;BME280;37387;42.672;23.334;2022-12-29T03:23:34;952.8;;;4.1;100.0
40013;BME280;37387;42.672;23.334;2022-12-29T03:25:35;952.8;;;4.0;100.0
40013;BME280;37387;42.672;23.334;2022-12-29T03:26:34;952.8;;;3.9;100.0
40013;BME280;37387;42.672;23.334;2022-12-29T03:28:35;952.8;;;3.8;100.0
40013;BME280;37387;42.672;23.334;2022-12-29T03:29:36;952.8;;;3.9;100.0
40013;BME280;37387;42.672;23.334;2022-12-29T03:31:34;952.8;;;4.0;100.0
40013;BME280;37387;42.672;23.334;2022-12-29T03:32:35;952.8;;;3.8;100.0
40013;BME280;37387;42.672;23.334;2022-12-29T03:35:35;952.8;;;3.9;100.0
40013;BME280;37387;42.672;23.334;2022-12-29T03:36:35;952.8;;;3.8;100.0
40013;BME280;37387;42.672;23.334;2022-12-29T03:37:35;952.8;;;3.7;100.0
40013;BME280;37387;42.672;23.334;2022-12-29T03:38:35;952.8;;;3.6;100.0
40013;BME280;37387;42.672;23.334;2022-12-29T03:39:34;952.9;;;3.7;100.0
40013;BME280;37387;42.672;23.334;2022-12-29T03:40:34;952.9;;;3.8;100.0
40013;BME280;37387;42.672;23.334;2022-12-29T03:42:35;952.8;;;3.7;100.0
40013;BME280;37387;42.672;23.334;2022-12-29T03:45:34;952.8;;;3.6;100.0
40013;BME280;37387;42.672;23.334;2022-12-29T03:47:34;952.8;;;3.5;100.0
40013;BME280;37387;42.672;23.334;2022-12-29T03:50:34;952.9;;;3.4;100.0
40013;BME280;37387;42.672;23.334;2022-12-29T03:52:34;952.9;;;3.3;100.0
40013;BME280;37387;42.672;23.334;2022-12-29T03:55:34;952.9;;;3.2;100.0
40013;BME280;37387;42.672;23.334;2022-12-29T03:56:34;952.9;;;3.1;100.0
40013;BME280;37387;42.672;23.334;2022-12-29T03:57:34;952.9;;;3.0;100.0
40013;BME280;37387;42.672;23.334;2022-12-29T03:59:34;953.0;;;2.9;100.0
40013;BME280;37387;42.672;23.334;2022-12-29T04:00:34;953.0;;;2.7;100.0
40013;BME280;37387;42.672;23.334;2022-12-29T04:03:34;953.0;;;2.8;100.0
40013;BME280;37387;42.672;23.334;2022-12-29T04:04:34;953.0;;;2.9;100.0
40013;BME280;37387;42.672;23.334;2022-12-29T04:10:34;953.0;;;2.8;100.0
40013;BME280;37387;42.672;23.334;2022-12-29T04:11:34;952.9;;;2.7;100.0
40013;BME280;37387;42.672;23.334;2022-12-29T04:13:34;952.9;;;2.8;100.0
40013;BME280;37387;42.672;23.334;2022-12-29T04:14:34;952.9;;;2.7;100.0
40013;BME280;37387;42.672;23.334;2022-12-29T04:21:34;953.0;;;2.6;100.0
40013;BME280;37387;42.672;23.334;2022-12-29T04:22:34;953.0;;;2.7;100.0
40013;BME280;37387;42.672;23.334;2022-12-29T04:23:35;953.0;;;2.6;100.0
40013;BME280;37387;42.672;23.334;2022-12-29T04:25:34;953.0;;;2.5;100.0
40013;BME280;37387;42.672;23.334;2022-12-29T04:28:34;953.0;;;2.6;100.0
40013;BME280;37387;42.672;23.334;2022-12-29T04:29:34;953.0;;;2.5;100.0
40013;BME280;37387;42.672;23.334;2022-12-29T04:30:34;953.0;;;2.6;100.0
40013;BME280;37387;42.672;23.334;2022-12-29T04:40:34;953.1;;;2.7;100.0
40013;BME280;37387;42.672;23.334;2022-12-29T04:47:34;953.2;;;2.8;100.0
40013;BME280;37387;42.672;23.334;2022-12-29T04:48:34;953.2;;;2.7;100.0
40013;BME280;37387;42.672;23.334;2022-12-29T04:49:34;953.2;;;2.8;100.0
40013;BME280;37387;42.672;23.334;2022-12-29T04:52:34;953.3;;;2.7;100.0
40013;BME280;37387;42.672;23.334;2022-12-29T04:56:34;953.3;;;2.6;100.0
40013;BME280;37387;42.672;23.334;2022-12-29T04:57:34;953.3;;;2.7;100.0
40013;BME280;37387;42.672;23.334;2022-12-29T05:07:34;953.3;;;2.6;100.0
40013;BME280;37387;42.672;23.334;2022-12-29T05:08:34;953.3;;;2.5;100.0
40013;BME280;37387;42.672;23.334;2022-12-29T05:10:34;953.3;;;2.4;100.0
40013;BME280;37387;42.672;23.334;2022-12-29T05:11:34;953.3;;;2.5;100.0
40013;BME280;37387;42.672;23.334;2022-12-29T05:12:35;953.3;;;2.6;100.0
40013;BME280;37387;42.672;23.334;2022-12-29T05:13:34;953.3;;;2.8;100.0
40013;BME280;37387;42.672;23.334;2022-12-29T05:14:34;953.3;;;2.7;100.0
40013;BME280;37387;42.672;23.334;2022-12-29T05:16:34;953.3;;;2.8;100.0
40013;BME280;37387;42.672;23.334;2022-12-29T05:18:34;953.3;;;2.9;100.0
40013;BME280;37387;42.672;23.334;2022-12-29T05:21:34;953.3;;;3.1;100.0
40013;BME280;37387;42.672;23.334;2022-12-29T05:23:34;953.3;;;3.2;100.0
40013;BME280;37387;42.672;23.334;2022-12-29T05:24:34;953.3;;;3.3;100.0
40013;BME280;37387;42.672;23.334;2022-12-29T05:25:34;953.3;;;3.4;100.0
40013;BME280;37387;42.672;23.334;2022-12-29T05:32:34;953.3;;;3.5;100.0
40013;BME280;37387;42.672;23.334;2022-12-29T05:33:34;953.3;;;3.6;100.0
40013;BME280;37387;42.672;23.334;2022-12-29T05:34:34;953.3;;;3.3;100.0
40013;BME280;37387;42.672;23.334;2022-12-29T05:35:34;953.3;;;3.5;100.0
40013;BME280;37387;42.672;23.334;2022-12-29T05:37:34;953.3;;;3.6;100.0
40013;BME280;37387;42.672;23.334;2022-12-29T05:38:34;953.3;;;3.5;100.0
40013;BME280;37387;42.672;23.334;2022-12-29T05:42:34;953.3;;;3.6;100.0
40013;BME280;37387;42.672;23.334;2022-12-29T05:44:34;953.4;;;3.7;100.0
40013;BME280;37387;42.672;23.334;2022-12-29T05:45:35;953.4;;;3.8;100.0
40013;BME280;37387;42.672;23.334;2022-12-29T05:47:34;953.4;;;3.9;100.0
40013;BME280;37387;42.672;23.334;2022-12-29T05:48:34;953.4;;;3.7;100.0
40013;BME280;37387;42.672;23.334;2022-12-29T05:49:34;953.4;;;3.8;100.0
40013;BME280;37387;42.672;23.334;2022-12-29T05:51:34;953.4;;;3.9;100.0
40013;BME280;37387;42.672;23.334;2022-12-29T05:53:34;953.4;;;3.8;100.0
40013;BME280;37387;42.672;23.334;2022-12-29T05:56:34;953.4;;;3.9;100.0
40013;BME280;37387;42.672;23.334;2022-12-29T05:57:34;953.5;;;4.0;100.0
40013;BME280;37387;42.672;23.334;2022-12-29T06:04:34;953.5;;;4.1;100.0
40013;BME280;37387;42.672;23.334;2022-12-29T06:05:34;953.5;;;4.2;100.0
40013;BME280;37387;42.672;23.334;2022-12-29T06:06:34;953.6;;;4.3;100.0
40013;BME280;37387;42.672;23.334;2022-12-29T06:08:34;953.6;;;4.4;100.0
40013;BME280;37387;42.672;23.334;2022-12-29T06:10:34;953.6;;;4.5;100.0
40013;BME280;37387;42.672;23.334;2022-12-29T06:11:34;953.6;;;4.6;100.0
40013;BME280;37387;42.672;23.334;2022-12-29T06:12:34;953.7;;;4.7;100.0
40013;BME280;37387;42.672;23.334;2022-12-29T06:13:34;953.7;;;4.9;100.0
40013;BME280;37387;42.672;23.334;2022-12-29T06:14:34;953.6;;;5.1;100.0
40013;BME280;37387;42.672;23.334;2022-12-29T06:15:34;953.6;;;5.2;100.0
40013;BME280;37387;42.672;23.334;2022-12-29T06:16:34;953.7;;;5.4;100.0
40013;BME280;37387;42.672;23.334;2022-12-29T06:18:34;953.6;;;5.7;100.0
40013;BME280;37387;42.672;23.334;2022-12-29T06:19:34;953.6;;;6.0;100.0
40013;BME280;37387;42.672;23.334;2022-12-29T06:20:34;953.6;;;6.2;100.0
40013;BME280;37387;42.672;23.334;2022-12-29T06:22:34;953.7;;;6.3;100.0
40013;BME280;37387;42.672;23.334;2022-12-29T06:24:34;953.7;;;6.5;100.0
40013;BME280;37387;42.672;23.334;2022-12-29T06:25:34;953.7;;;6.6;100.0
40013;BME280;37387;42.672;23.334;2022-12-29T06:29:34;953.7;;;6.4;100.0
40013;BME280;37387;42.672;23.334;2022-12-29T06:30:34;953.7;;;6.3;100.0
40013;BME280;37387;42.672;23.334;2022-12-29T06:33:34;953.7;;;6.5;100.0
40013;BME280;37387;42.672;23.334;2022-12-29T06:35:34;953.7;;;6.4;100.0
40013;BME280;37387;42.672;23.334;2022-12-29T06:37:34;953.7;;;6.5;100.0
40013;BME280;37387;42.672;23.334;2022-12-29T06:38:34;953.7;;;6.4;100.0
40013;BME280;37387;42.672;23.334;2022-12-29T06:39:34;953.7;;;6.3;100.0
40013;BME280;37387;42.672;23.334;2022-12-29T06:40:34;953.7;;;6.2;100.0
40013;BME280;37387;42.672;23.334;2022-12-29T06:41:34;953.7;;;6.0;100.0
40013;BME280;37387;42.672;23.334;2022-12-29T06:42:34;953.7;;;6.1;100.0
40013;BME280;37387;42.672;23.334;2022-12-29T06:43:34;953.8;;;6.3;100.0
40013;BME280;37387;42.672;23.334;2022-12-29T06:44:34;953.8;;;6.9;100.0
40013;BME280;37387;42.672;23.334;2022-12-29T06:45:34;953.8;;;7.3;100.0
40013;BME280;37387;42.672;23.334;2022-12-29T06:46:34;953.8;;;7.6;100.0
40013;BME280;37387;42.672;23.334;2022-12-29T06:47:34;953.8;;;8.2;100.0
40013;BME280;37387;42.672;23.334;2022-12-29T06:48:34;953.9;;;8.5;100.0
40013;BME280;37387;42.672;23.334;2022-12-29T06:49:34;953.9;;;8.9;100.0
40013;BME280;37387;42.672;23.334;2022-12-29T06:50:34;953.9;;;9.2;98.5
40013;BME280;37387;42.672;23.334;2022-12-29T06:51:34;953.9;;;9.6;98.5
40013;BME280;37387;42.672;23.334;2022-12-29T06:52:34;953.9;;;10.0;96.0
40013;BME280;37387;42.672;23.334;2022-12-29T06:53:34;953.9;;;10.4;86.6
40013;BME280;37387;42.672;23.334;2022-12-29T06:55:34;953.9;;;9.7;83.4
40013;BME280;37387;42.672;23.334;2022-12-29T06:57:34;954.0;;;9.5;88.7
40013;BME280;37387;42.672;23.334;2022-12-29T06:58:34;954.0;;;9.4;88.9
40013;BME280;37387;42.672;23.334;2022-12-29T06:59:34;954.0;;;9.1;90.7
40013;BME280;37387;42.672;23.334;2022-12-29T07:00:34;954.0;;;8.5;90.7
40013;BME280;37387;42.672;23.334;2022-12-29T07:01:34;953.9;;;8.2;95.9
40013;BME280;37387;42.672;23.334;2022-12-29T07:02:34;953.9;;;8.1;100.0
40013;BME280;37387;42.672;23.334;2022-12-29T07:03:34;953.9;;;8.3;100.0
40013;BME280;37387;42.672;23.334;2022-12-29T07:04:34;953.9;;;8.2;100.0
40013;BME280;37387;42.672;23.334;2022-12-29T07:05:34;954.0;;;8.0;100.0
40013;BME280;37387;42.672;23.334;2022-12-29T07:06:34;953.9;;;7.9;100.0
40013;BME280;37387;42.672;23.334;2022-12-29T07:07:34;953.9;;;7.6;100.0
40013;BME280;37387;42.672;23.334;2022-12-29T07:08:34;953.9;;;7.5;100.0
40013;BME280;37387;42.672;23.334;2022-12-29T07:11:34;953.9;;;7.4;100.0
40013;BME280;37387;42.672;23.334;2022-12-29T07:12:34;953.9;;;7.5;100.0
40013;BME280;37387;42.672;23.334;2022-12-29T07:13:34;954.0;;;7.7;100.0
40013;BME280;37387;42.672;23.334;2022-12-29T07:14:34;953.9;;;8.1;100.0
40013;BME280;37387;42.672;23.334;2022-12-29T07:15:34;953.9;;;8.5;100.0
40013;BME280;37387;42.672;23.334;2022-12-29T07:16:34;954.0;;;8.7;100.0
40013;BME280;37387;42.672;23.334;2022-12-29T07:17:34;954.0;;;8.8;100.0
40013;BME280;37387;42.672;23.334;2022-12-29T07:19:34;953.9;;;8.7;91.2
40013;BME280;37387;42.672;23.334;2022-12-29T07:21:34;953.9;;;8.9;90.3
40013;BME280;37387;42.672;23.334;2022-12-29T07:22:34;954.0;;;9.3;89.4
40013;BME280;37387;42.672;23.334;2022-12-29T07:25:34;953.9;;;9.8;86.0
40013;BME280;37387;42.672;23.334;2022-12-29T07:26:34;954.0;;;10.0;83.6
40013;BME280;37387;42.672;23.334;2022-12-29T07:27:34;953.9;;;10.4;78.8
40013;BME280;37387;42.672;23.334;2022-12-29T07:29:35;954.0;;;10.8;76.0
40013;BME280;37387;42.672;23.334;2022-12-29T07:30:36;954.0;;;11.5;72.6
40013;BME280;37387;42.672;23.334;2022-12-29T07:31:34;954.0;;;12.2;72.6
40013;BME280;37387;42.672;23.334;2022-12-29T07:32:34;954.0;;;11.9;69.8
40013;BME280;37387;42.672;23.334;2022-12-29T07:33:34;954.0;;;11.2;67.3
40013;BME280;37387;42.672;23.334;2022-12-29T07:34:34;954.0;;;11.6;70.0
40013;BME280;37387;42.672;23.334;2022-12-29T07:35:34;954.0;;;12.1;69.9
40013;BME280;37387;42.672;23.334;2022-12-29T07:36:34;954.0;;;12.3;66.2
40013;BME280;37387;42.672;23.334;2022-12-29T07:37:34;954.0;;;12.2;66.2
40013;BME280;37387;42.672;23.334;2022-12-29T07:38:34;954.0;;;12.1;65.7
40013;BME280;37387;42.672;23.334;2022-12-29T07:39:34;954.0;;;12.9;65.9
40013;BME280;37387;42.672;23.334;2022-12-29T07:41:34;954.0;;;13.5;61.1
40013;BME280;37387;42.672;23.334;2022-12-29T07:42:34;954.0;;;12.9;61.4
40013;BME280;37387;42.672;23.334;2022-12-29T07:43:34;954.0;;;12.5;61.4
40013;BME280;37387;42.672;23.334;2022-12-29T07:44:34;954.0;;;11.7;61.4
40013;BME280;37387;42.672;23.334;2022-12-29T07:45:34;954.0;;;12.2;65.5
40013;BME280;37387;42.672;23.334;2022-12-29T07:46:34;954.0;;;12.6;65.2
40013;BME280;37387;42.672;23.334;2022-12-29T07:47:34;954.0;;;12.2;61.9
40013;BME280;37387;42.672;23.334;2022-12-29T07:48:34;954.0;;;12.4;62.3
40013;BME280;37387;42.672;23.334;2022-12-29T07:49:34;954.0;;;12.6;63.8
40013;BME280;37387;42.672;23.334;2022-12-29T07:50:34;954.1;;;13.2;60.8
40013;BME280;37387;42.672;23.334;2022-12-29T07:51:34;954.1;;;12.8;60.8
40013;BME280;37387;42.672;23.334;2022-12-29T07:52:34;954.1;;;13.3;60.8
40013;BME280;37387;42.672;23.334;2022-12-29T07:53:34;954.1;;;13.9;61.3
40013;BME280;37387;42.672;23.334;2022-12-29T07:55:34;954.1;;;14.6;57.4
40013;BME280;37387;42.672;23.334;2022-12-29T07:56:34;954.1;;;15.1;55.3
40013;BME280;37387;42.672;23.334;2022-12-29T07:57:34;954.0;;;15.2;53.7
40013;BME280;37387;42.672;23.334;2022-12-29T07:58:34;954.1;;;14.4;52.9
40013;BME280;37387;42.672;23.334;2022-12-29T07:59:34;954.1;;;14.7;54.0
40013;BME280;37387;42.672;23.334;2022-12-29T08:00:34;954.1;;;15.6;51.0
40013;BME280;37387;42.672;23.334;2022-12-29T08:01:34;954.1;;;16.0;51.0
40013;BME280;37387;42.672;23.334;2022-12-29T08:02:34;954.1;;;16.7;49.8
40013;BME280;37387;42.672;23.334;2022-12-29T08:03:34;954.1;;;17.4;48.6
40013;BME280;37387;42.672;23.334;2022-12-29T08:04:34;954.1;;;16.4;45.8
40013;BME280;37387;42.672;23.334;2022-12-29T08:05:34;954.1;;;15.2;46.9
40013;BME280;37387;42.672;23.334;2022-12-29T08:06:34;954.1;;;15.4;49.4
40013;BME280;37387;42.672;23.334;2022-12-29T08:07:34;954.1;;;15.2;50.2
40013;BME280;37387;42.672;23.334;2022-12-29T08:08:34;954.1;;;15.7;50.8
40013;BME280;37387;42.672;23.334;2022-12-29T08:09:34;954.2;;;15.3;49.7
40013;BME280;37387;42.672;23.334;2022-12-29T08:10:34;954.2;;;15.1;50.0
40013;BME280;37387;42.672;23.334;2022-12-29T08:11:34;954.2;;;16.0;51.2
40013;BME280;37387;42.672;23.334;2022-12-29T08:12:34;954.2;;;16.7;49.8
40013;BME280;37387;42.672;23.334;2022-12-29T08:13:34;954.2;;;17.0;46.7
40013;BME280;37387;42.672;23.334;2022-12-29T08:14:34;954.2;;;16.9;46.7
40013;BME280;37387;42.672;23.334;2022-12-29T08:15:34;954.1;;;16.6;46.4
40013;BME280;37387;42.672;23.334;2022-12-29T08:16:34;954.1;;;15.3;46.2
40013;BME280;37387;42.672;23.334;2022-12-29T08:17:34;954.1;;;14.9;48.5
40013;BME280;37387;42.672;23.334;2022-12-29T08:18:34;954.1;;;15.1;50.9
40013;BME280;37387;42.672;23.334;2022-12-29T08:19:34;954.1;;;15.8;49.4
40013;BME280;37387;42.672;23.334;2022-12-29T08:20:34;954.1;;;15.3;49.4
40013;BME280;37387;42.672;23.334;2022-12-29T08:21:34;954.1;;;15.6;50.2
40013;BME280;37387;42.672;23.334;2022-12-29T08:22:34;954.1;;;15.7;49.7
40013;BME280;37387;42.672;23.334;2022-12-29T08:23:34;954.1;;;14.8;48.4
40013;BME280;37387;42.672;23.334;2022-12-29T08:24:34;954.0;;;15.5;50.8
40013;BME280;37387;42.672;23.334;2022-12-29T08:25:34;954.0;;;15.1;50.1
40013;BME280;37387;42.672;23.334;2022-12-29T08:26:34;954.0;;;13.9;49.3
40013;BME280;37387;42.672;23.334;2022-12-29T08:27:34;954.0;;;13.5;52.6
40013;BME280;37387;42.672;23.334;2022-12-29T08:28:34;954.0;;;13.2;56.1
40013;BME280;37387;42.672;23.334;2022-12-29T08:30:35;954.0;;;12.6;56.3
40013;BME280;37387;42.672;23.334;2022-12-29T08:33:34;954.0;;;13.1;60.3
40013;BME280;37387;42.672;23.334;2022-12-29T08:34:34;954.1;;;13.2;58.7
40013;BME280;37387;42.672;23.334;2022-12-29T08:35:34;954.0;;;13.1;58.1
40013;BME280;37387;42.672;23.334;2022-12-29T08:36:34;954.0;;;13.9;57.4
40013;BME280;37387;42.672;23.334;2022-12-29T08:37:34;954.1;;;14.3;53.7
40013;BME280;37387;42.672;23.334;2022-12-29T08:38:34;954.1;;;14.2;53.7
40013;BME280;37387;42.672;23.334;2022-12-29T08:39:34;954.0;;;14.4;53.6
40013;BME280;37387;42.672;23.334;2022-12-29T08:40:34;954.0;;;14.5;54.0
40013;BME280;37387;42.672;23.334;2022-12-29T08:41:34;954.0;;;13.6;52.4
40013;BME280;37387;42.672;23.334;2022-12-29T08:42:34;954.0;;;13.5;56.3
40013;BME280;37387;42.672;23.334;2022-12-29T08:43:34;954.0;;;13.9;56.3
40013;BME280;37387;42.672;23.334;2022-12-29T08:44:34;954.0;;;15.1;56.2
40013;BME280;37387;42.672;23.334;2022-12-29T08:45:34;954.0;;;14.9;52.4
40013;BME280;37387;42.672;23.334;2022-12-29T08:46:34;954.0;;;14.1;50.9
40013;BME280;37387;42.672;23.334;2022-12-29T08:47:34;954.1;;;13.9;54.7
40013;BME280;37387;42.672;23.334;2022-12-29T08:48:34;954.1;;;13.4;54.7
40013;BME280;37387;42.672;23.334;2022-12-29T08:49:34;954.1;;;13.9;56.5
40013;BME280;37387;42.672;23.334;2022-12-29T08:50:34;954.1;;;13.6;56.2
40013;BME280;37387;42.672;23.334;2022-12-29T08:51:35;954.1;;;14.1;56.2
40013;BME280;37387;42.672;23.334;2022-12-29T08:52:34;954.1;;;14.7;54.3
40013;BME280;37387;42.672;23.334;2022-12-29T08:53:34;954.1;;;15.0;53.3
40013;BME280;37387;42.672;23.334;2022-12-29T08:55:34;954.0;;;15.2;51.4
40013;BME280;37387;42.672;23.334;2022-12-29T08:56:34;954.0;;;15.8;49.6
40013;BME280;37387;42.672;23.334;2022-12-29T08:57:34;954.0;;;16.4;49.6
40013;BME280;37387;42.672;23.334;2022-12-29T08:58:34;954.0;;;15.8;48.5
40013;BME280;37387;42.672;23.334;2022-12-29T08:59:34;954.0;;;14.8;48.4
40013;BME280;37387;42.672;23.334;2022-12-29T09:00:34;954.0;;;15.1;50.8
40013;BME280;37387;42.672;23.334;2022-12-29T09:01:34;953.9;;;14.7;50.8
40013;BME280;37387;42.672;23.334;2022-12-29T09:02:34;953.9;;;14.6;51.6
40013;BME280;37387;42.672;23.334;2022-12-29T09:03:34;953.9;;;14.3;52.3
40013;BME280;37387;42.672;23.334;2022-12-29T09:04:34;953.9;;;13.9;53.0
40013;BME280;37387;42.672;23.334;2022-12-29T09:05:34;953.9;;;14.1;54.3
40013;BME280;37387;42.672;23.334;2022-12-29T09:07:34;953.9;;;13.4;54.1
40013;BME280;37387;42.672;23.334;2022-12-29T09:08:34;953.9;;;13.7;56.1
40013;BME280;37387;42.672;23.334;2022-12-29T09:09:34;953.9;;;13.4;55.8
40013;BME280;37387;42.672;23.334;2022-12-29T09:10:34;953.9;;;13.6;57.0
40013;BME280;37387;42.672;23.334;2022-12-29T09:11:34;953.9;;;13.4;56.4
40013;BME280;37387;42.672;23.334;2022-12-29T09:12:34;953.9;;;13.9;57.2
40013;BME280;37387;42.672;23.334;2022-12-29T09:13:34;953.9;;;14.7;55.8
40013;BME280;37387;42.672;23.334;2022-12-29T09:14:34;953.9;;;15.1;53.6
40013;BME280;37387;42.672;23.334;2022-12-29T09:15:34;953.9;;;15.2;51.3
40013;BME280;37387;42.672;23.334;2022-12-29T09:16:34;953.8;;;14.4;51.2
40013;BME280;37387;42.672;23.334;2022-12-29T09:18:34;953.8;;;14.2;53.5
40013;BME280;37387;42.672;23.334;2022-12-29T09:19:34;953.8;;;14.7;53.7
40013;BME280;37387;42.672;23.334;2022-12-29T09:20:34;953.8;;;15.4;53.2
40013;BME280;37387;42.672;23.334;2022-12-29T09:21:34;953.8;;;15.8;50.8
40013;BME280;37387;42.672;23.334;2022-12-29T09:22:34;953.8;;;14.3;49.2
40013;BME280;37387;42.672;23.334;2022-12-29T09:23:34;953.8;;;13.6;54.9
40013;BME280;37387;42.672;23.334;2022-12-29T09:24:34;953.8;;;13.2;54.9
40013;BME280;37387;42.672;23.334;2022-12-29T09:25:34;953.8;;;13.7;56.4
40013;BME280;37387;42.672;23.334;2022-12-29T09:26:34;953.8;;;13.4;56.4
40013;BME280;37387;42.672;23.334;2022-12-29T09:27:34;953.8;;;13.6;56.9
40013;BME280;37387;42.672;23.334;2022-12-29T09:28:34;953.8;;;13.7;56.9
40013;BME280;37387;42.672;23.334;2022-12-29T09:29:34;953.8;;;13.1;56.7
40013;BME280;37387;42.672;23.334;2022-12-29T09:30:34;953.8;;;13.5;57.8
40013;BME280;37387;42.672;23.334;2022-12-29T09:31:34;953.7;;;14.0;56.1
40013;BME280;37387;42.672;23.334;2022-12-29T09:32:34;953.7;;;13.6;56.3